LiveATC.Net - Listen to live air traffic control over the Internet!

Airport/ARTCC Code
Frequency Search
(e.g., 124.400, 128.75)
Site-wide search
 


Browse Feeds
Top 50 Feeds
Coverage Map
Bad Weather Areas

LiveATC FAQ
Offer LiveATC feed
Contact LiveATC.net
Press Inquiries

LiveATC on iPhone
LiveATC on Android

Windows Phone
Windows 8/10

LiveATC Mobile
(Mobile browser)

ATC Audio Archives
Interesting Recordings

LiveATC Forums

Home Page
About LiveATC.net
Make a Donation
Terms of Use
Privacy Policy

Canadian Air Freqs

AIRMETs/SIGMETs

FAA Airport Status
Nat'l Airspace Status
Arrival Demand Charts


Server Software By:
Icecast.org
Liquidsoap


Current Potentially Bad Weather Airports
(updated every 30 minutes - sorted alphabetically by ICAO code)



This page lists LiveATC.net airport areas that may be interesting to listen to because of challenging flying (weather) conditions. Challenging weather conditions include low ceilings, limited visibility, high or gusty winds, or thunderstorms.

Updated: Thu Feb 25 10:40:01 UTC 2021
Click on airport name to go to that airport area's feeds.

51FL/KCDK/KCTY/X60 CTAF Chiefland Sky Ranch Airport (Chiefland, US-FL)
kctyNearest METAR:
KCTY 251015Z AUTO 00000KT 1/4SM FG OVC002 A3016 RMK AO2
CYHZ Del/Gnd/Twr/App #1 Halifax International Airport (Halifax, CA-NS)
WX MAP UNAVAILABLENearest METAR:
CYHZ 251000Z CCA 20013G22KT 5SM -RA BR OVC004 03/03 A2945 RMK SF8 SLP979
CYOW Gnd/Twr/App Ottawa MacDonald Cartier International Airport (Ottawa, CA-ON)
cyowNearest METAR:
CYOW 251000Z 29011KT 10SM -SN FEW008 SCT050 SCT090 M05/M07 A2996 RMK SF1SC4AC1 SF TR AC TR SLP153
CYQM App/Dep Greater Moncton International Airport (Moncton, CA-NB)
cyqmNearest METAR:
CYQM 251000Z 13007KT 3SM -SN BKN004 OVC013 00/00 A2937 RMK NS7SC1 SLP950
CYSC AWOS Sherbrooke Airport (Sherbrooke, CA-QC)
WX MAP UNAVAILABLENearest METAR:
CYSC 251025Z AUTO 31012G30KT 3SM -SN BKN015 M06/M08 A2978 RMK PRESRR SLP099
EFKU Tower/Approach Kuopio Airport (Siilinjarvi, Finland)
WX MAP UNAVAILABLENearest METAR:
EFKU 251020Z 22008KT 190V250 7000 OVC002 02/01 Q1005
ENGM App/Polaris ACC Eggemoen Airport (Honefoss, Norway)
WX MAP UNAVAILABLENearest METAR:
ENGM 251020Z 19008KT 0400 R19R/0550N R01R/0275N R19L/0300N R01L/P2000N FG VV002 03/03 Q1009 TEMPO 0800 FG
ENEV Twr/App/ACC Harstad/Narvik Airport (Evenes, Norway)
WX MAP UNAVAILABLENearest METAR:
ENEV 251020Z 23011KT 200V270 5000 -SHRA BKN006 05/04 Q0991 RMK WIND 1400FT 24025G38KT
ENOR Sector 8 Moss Airport - Rygge (Moss, Norway)
WX MAP UNAVAILABLENearest METAR:
ENRY 251020Z 19010KT 0150 R12/0400N R30/0550 FG OVC000 03/03 Q1011 REUP TEMPO 0400 FG
ENTO Tower/App Sandefjord Airport - Torp (Sandefjord, Norway)
WX MAP UNAVAILABLENearest METAR:
ENTO 251020Z 20009KT 0300 R18/1300N R36/0450N FG VV004 04/04 Q1011 TEMPO 0700 FG
ENZV Gnd/Twr/App Stavanger Sola Airport (Stavanger, Norway)
WX MAP UNAVAILABLENearest METAR:
ENZV 251020Z 20009KT 9000 OVC006 07/06 Q1013 BECMG BKN015
KAPA App/Dep Centennial Airport (Denver, US-CO)
kapaNearest METAR:
KAPA 250953Z 34010KT 1/2SM SN FZFG VV007 M06/M08 A3026 RMK AO2 TWR VIS 3/4 SLP286 P0005 T10611083 $
KASE Approach/Denver Center Aspen-Pitkin County Airport/Sardy Field (Aspen, US-CO)
kaseNearest METAR:
KASE 251026Z AUTO 00000KT 3SM -SN BR OVC025 M07/M08 A3009 RMK AO2 P0001 T10671078
KBAF ATIS Barnes Municipal Airport (Westfield/Springfield, US-MA)
kbafNearest METAR:
KBAF 250953Z AUTO 29024G35KT 10SM OVC044 04/M04 A2984 RMK AO2 PK WND 31039/0900 SLP107 T00441039
KBDL Approach/ANG Bradley International Airport (Windsor Locks, US-CT)
kbdlNearest METAR:
KBDL 250951Z 30023G34KT 10SM SCT048 BKN060 05/M04 A2985 RMK AO2 PK WND 29034/0943 SLP110 T00501039
KBFM Ground/Tower Mobile Downtown Airport (Mobile, US-AL)
kbfmNearest METAR:
KBFM 251027Z 00000KT 1 3/4SM BR OVC002 14/13 A3014 RMK AO2 VIS 1V5 T01440133
KBJC Ground/Tower Rocky Mountain Metropolitan Airport (Denver, US-CO)
kbjcNearest METAR:
KBJC 251015Z AUTO 36004KT 2SM -SN OVC009 M05/M06 A3029 RMK AO2
KBJI CTAF/ZMP Bemidji Regional Airport (Bemidji, US-MN)
kbjiNearest METAR:
KBJI 251015Z AUTO 25009KT 10SM OVC009 M07/M08 A3018 RMK AO2 T10711083
KBKF Tower (UHF) Buckley Air Force Base (Aurora, US-CO)
kbkfNearest METAR:
KBKF 250958Z 36008KT 1/2SM R32/4000FT SN FZFG VV005 M06/M06 A3027 RMK AO2A SLP269 P0013 T10631064
KBTR/KHZR/L38 Del/Gnd/Twr/App/CTAF Baton Rouge Metropolitan Airport - Ryan Field (Baton Rouge, US-LA)
khzrNearest METAR:
KHZR 251015Z AUTO 00000KT 4SM BR OVC003 17/17 A3013 RMK AO2 T01660166
KBTR/KHZR/L38 Del/Gnd/Twr/App/CTAF Baton Rouge Metropolitan Airport - Ryan Field (Baton Rouge, US-LA)
kbtrNearest METAR:
KBTR 251017Z AUTO 25003KT 7SM OVC004 17/17 A3012 RMK AO2 T01720167 $
KBTV Del/Gnd/Twr/App Burlington International Airport (Burlington, US-VT)
kbtvNearest METAR:
KBTV 251004Z 01009KT 5SM -SN BR SCT008 OVC013 M02/M04 A2989 RMK AO2 P0000 T10221044
KCMA Gnd/Twr/App Camarillo Airport (Camarillo, US-CA)
kcmaNearest METAR:
KCMA 250955Z AUTO 06021G30KT 10SM CLR 19/M06 A3006 RMK AO2 PK WND 07030/0949 SLP186 T01891061
KCOS Gnd/Twr/App/Dep City of Colorado Springs Municipal Airport (Colorado Springs, US-CO)
kcosNearest METAR:
KCOS 250954Z 35003KT 1/2SM R17L/4500V5500FT SN FZFG VV007 M04/M06 A3024 RMK AO2 SLP275 P0003 T10441061
KCQF CTAF/Misc H L Sonny Callahan Airport (Fairhope, US-AL)
kcqfNearest METAR:
KCQF 251015Z AUTO 00000KT 1/2SM FG OVC003 16/16 A3013 RMK AO2
KCYS Gnd/Twr/App/Center Cheyenne Regional Airport/Jerry Olson Field (Cheyenne, US-WY)
kcysNearest METAR:
KCYS 250953Z AUTO 00000KT 1 1/4SM -SN BR OVC017 M07/M08 A3026 RMK AO2 SLP296 P0002 T10721083 $
KDEN Approach Denver International Airport (Denver, US-CO)
kdenNearest METAR:
KDEN 250953Z 01007KT 3/4SM R35L/P6000FT -SN BR VV012 M06/M07 A3029 RMK AO2 SLP272 P0003 T10561072
KFTG/KEIK/KBDU/KLMO/Misc Vance Brand Airport (Longmont, US-CO)
kftgNearest METAR:
KLMO 251015Z AUTO 00000KT 2SM -SN OVC012 M03/M05 A3033 RMK AO2 T10351051
KCFO/KEIK/KBDU/KLMO/Misc Vance Brand Airport (Longmont, US-CO)
kcfoNearest METAR:
KCFO 251015Z AUTO 00000KT 1 1/4SM -SN BKN010 OVC013 M04/M06 A3028 RMK AO2 T10431056
KDWH Del/ Gnd/Twr David Wayne Hooks Memorial Airport (Houston, US-TX)
kdwhNearest METAR:
KDWH 250953Z AUTO 00000KT 5SM BR OVC007 18/17 A3007 RMK AO2 SLP181 T01830172
KFNL Tower/CTAF Northern Colorado Regional Airport (Fort Collins/Loveland, US-CO)
kfnlNearest METAR:
KFNL 251013Z 00000KT 3SM -SN BR BKN029 OVC034 M06/M07 A3031 RMK AO2 SFC VIS 4 P0000 FZRANO
Palm Beach App/Dep St Lucie County International Airport (Fort Pierce, US-FL)
ksuaNearest METAR:
KSUA 251015Z AUTO 26004KT 1/2SM FG OVC001 19/18 A3014 RMK AO2
KGXY RCO (Denver Radio) Greeley-Weld County Airport (Greeley, US-CO)
kgxyNearest METAR:
KGXY 251023Z AUTO 00000KT 4SM -SN BR BKN027 OVC036 M04/M06 A3033 RMK AO2 P0000 FZRANO
NY Approach (NOBBI/NYACK/HAARP) Westchester County Airport (New York, US-NY)
khpnNearest METAR:
KHPN 250956Z 30021G30KT 10SM CLR 05/M04 A2987 RMK AO2 PK WND 31033/0911 SLP119 T00501039 $
KHUL/KPQI/ZBW01/15 Houlton International Airport (Houlton, US-ME)
khulNearest METAR:
KHUL 251022Z AUTO 35010KT 1 3/4SM -SN BR OVC005 M01/M02 A2938 RMK AO2 P0000 T10061017
KHUL/KPQI/ZBW01/15 Houlton International Airport (Houlton, US-ME)
kpqiNearest METAR:
KPQI 250956Z AUTO 35017KT 2SM -SN BR BKN011 OVC019 M03/M04 A2946 RMK AO2 SLP009 P0000 T10281039
KIAH Tower George Bush Intercontinental/Houston Airport (Houston, US-TX)
kiahNearest METAR:
KIAH 250953Z 00000KT 7SM OVC007 21/19 A3007 RMK AO2 RAB25E48 SLP183 P0000 T02060189
KJFK Ground #2 John F Kennedy International Airport (New York, US-NY)
kjfkNearest METAR:
KJFK 250951Z 31022G32KT 10SM FEW065 08/M04 A2990 RMK AO2 PK WND 30032/0949 SLP124 T00831039
KLAS Approach (NE) Mc Carran International Airport (Las Vegas, US-NV)
klasNearest METAR:
KLAS 250956Z 34022G30KT 10SM CLR 07/M12 A3029 RMK AO2 PK WND 33035/0928 SLP249 T00671122 $
KLRD Ground/Tower Laredo International Airport (Laredo, US-TX)
klrdNearest METAR:
KLRD 250956Z AUTO 07006KT 10SM OVC008 19/18 A2997 RMK AO2 SLP144 T01890178
KLXV CTAF Lake County Airport (Leadville, US-CO)
klxvNearest METAR:
KLXV 251024Z AUTO 19006KT 2SM -SN BR OVC017 M12/M14 A3005 RMK AO2 P0002 T11171139
KMOB Gnd/Twr/App Mobile Regional Airport (Mobile, US-AL)
kmobNearest METAR:
KMOB 251016Z AUTO 26004KT 1/2SM FG VV002 16/16 A3013 RMK AO2 T01560156
FSS (Central MA) Worcester Regional Airport (Worcester, US-MA)
korhNearest METAR:
KORH 250954Z AUTO 29020G40KT 10SM OVC040 04/M04 A2974 RMK AO2 PK WND 28040/0950 SLP079 T00391044
KPUB App/Dep (Denver App) Pueblo Memorial Airport (Pueblo, US-CO)
kpubNearest METAR:
KPUB 250953Z AUTO 04011KT 1 1/2SM -SN BR FEW016 OVC022 M02/M03 A3026 RMK AO2 SLP256 P0002 T10221033
KPVB/KSFY CTAF Platteville Municipal Airport (Platteville, US-WI)
kpvbNearest METAR:
KPVB 251015Z AUTO 00000KT 1 1/2SM VV007 M06/M06 A3029 RMK AO1 T10621062
KRAS CTAF Mustang Beach Airport (Port Aransas, US-TX)
krasNearest METAR:
KRAS 251015Z AUTO 10006KT 1/2SM FG OVC002 17/17 A3004 RMK AO2 T01650165
KSDM Ground/Tower Brown Field Municipal Airport (San Diego, US-CA)
ksdmNearest METAR:
KSDM 250953Z AUTO 04003KT 7SM OVC003 09/07 A3007 RMK AO2 SLP181 T00940072
KSEE Tower Gillespie Field Airport (San Diego/El Cajon, US-CA)
kseeNearest METAR:
KSEE 251015Z AUTO 00000KT 6SM BR OVC005 10/09 A3006 RMK AO2
KSMO Ground Santa Monica Municipal Airport (Santa Monica, US-CA)
ksmoNearest METAR:
KSMO 251017Z AUTO 04003KT 2 1/2SM BR BKN004 11/10 A3008 RMK AO2 T01060100
KTMB ATIS Kendall-Tamiami Executive Airport (Miami, US-FL)
ktmbNearest METAR:
KTMB 250953Z AUTO 00000KT 1/4SM FG VV003 19/18 A3012 RMK AO2 SLP199 T01940183
KTME Del/Gnd/Twr/App Houston Executive Airport (Houston, US-TX)
ktmeNearest METAR:
KTME 251015Z AUTO 17004KT 4SM BR BKN004 OVC007 19/19 RMK AO2
LGAV App/Radar Eleftherios Venizelos International Airport (Athens, Greece)
WX MAP UNAVAILABLENearest METAR:
LGAV 251020Z 03036KT 9999 FEW025 15/05 Q1030 NOSIG
LRCL Twr/App #1 Cluj-Napoca International Airport (Cluj-Napoca, Romania)
WX MAP UNAVAILABLENearest METAR:
LRCL 250930Z 07003KT 040V110 0400 R25/0325N FG VV002 01/01 Q1036 R07/19//95
MMTJ Twr/Ramp Tijuana International Airport (Tijuana, Mexico)
mmtjNearest METAR:
MMTJ 250948Z 00000KT 3SM BR OVC006 11/08 A3010 RMK 8/6// MSGTX MMMX
PAFA Gnd/Twr/App Fairbanks International Airport (Fairbanks, US-AK)
WX MAP UNAVAILABLENearest METAR:
PAFA 251004Z 19003KT 1 1/2SM -SN BR BKN014 OVC024 M13/M16 A2953 RMK AO2 P0001 T11281161 $
SBEG Tower/App Brigadeiro Eduardo Gomes-Manaus International Airport (Manaus, Brazil)
WX MAP UNAVAILABLENearest METAR:
SBEG 251000Z 35003KT 5000 -TSRA FEW008 SCT020 FEW025CB BKN100 23/22 Q1010
UUEE Twr/App/Radar Sheremetyevo Airport (Moscow, Russia)
WX MAP UNAVAILABLENearest METAR:
UUEE 251000Z 25005MPS 5000 BR OVC004 01/00 Q1011 R24L/450540 R24C/450530 NOSIG